Time;durP1;ratioP1;P1;durP2;ratioP2;P2;SDS_P1;SDS_P2;PMS_P1;PMS_P2;Temp;Humidity;BMP_temperature;BMP_pressure;BME280_temperature;BME280_humidity;BME280_pressure;Samples;Min_cycle;Max_cycle;Signal;HPM_P1;HPM_P2
2022/01/24 00:00:49;;;;;;;;;;;-0.10;99.90;;;;;;5073272;28;19962;-71
2022/01/24 00:03:14;;;;;;;;;;;-0.30;99.90;;;;;;5080922;28;19969;-72
2022/01/24 00:05:41;;;;;;;;;;;-0.50;99.90;;;;;;5068477;28;19915;-72
2022/01/24 00:08:06;;;;;;;;;;;-0.60;99.90;;;;;;5068566;28;19913;-71
2022/01/24 00:10:34;;;;;;;;;;;-0.80;99.90;;;;;;5068487;28;19954;-71
2022/01/24 00:18:25;;;;;;;;;;;-1.00;99.90;;;;;;5071724;28;19915;-71
2022/01/24 00:29:03;;;;;;;;;;;-1.10;99.90;;;;;;5092230;28;20323;-71
2022/01/24 00:31:28;;;;;;;;;;;-1.10;99.90;;;;;;5085660;28;19908;-71
2022/01/24 00:33:54;;;;;;;;;;;-1.10;99.90;;;;;;5081583;28;19966;-71
2022/01/24 00:36:19;;;;;;;;;;;-1.10;99.90;;;;;;5074815;28;19962;-72
2022/01/24 00:38:45;;;;;;;;;;;-1.30;99.90;;;;;;5073138;28;20345;-72
2022/01/24 00:41:14;;;;;;;;;;;-1.40;99.90;;;;;;5074449;28;19915;-71
2022/01/24 00:44:02;;;;;;;;;;;-1.20;99.90;;;;;;5074741;28;19908;-72
2022/01/24 00:46:39;;;;;;;;;;;-1.40;99.90;;;;;;5088665;28;19912;-72
2022/01/24 00:49:45;;;;;;;;;;;-1.60;99.90;;;;;;5094335;28;19995;-71
2022/01/24 00:54:53;;;;;;;;;;;-1.70;99.90;;;;;;5093428;28;20005;-71
2022/01/24 00:57:19;;;;;;;;;;;-1.90;99.90;;;;;;5083272;28;20026;-70
2022/01/24 00:59:45;;;;;;;;;;;-2.00;99.90;;;;;;5074672;28;19912;-71
2022/01/24 01:02:11;;;;;;;;;;;-2.00;99.90;;;;;;5082014;28;19912;-71
2022/01/24 01:04:53;;;;;;;;;;;-2.00;99.90;;;;;;5082050;28;20054;-71
2022/01/24 01:18:07;;;;;;;;;;;-2.00;99.90;;;;;;5074710;28;19908;-71
2022/01/24 01:18:22;;;;;;;;;;;-2.20;99.90;;;;;;5092452;28;20216;-72
2022/01/24 01:21:08;;;;;;;;;;;-2.20;99.90;;;;;;5092678;28;19908;-72
2022/01/24 01:23:37;;;;;;;;;;;-2.30;99.90;;;;;;5092224;28;19913;-71
2022/01/24 01:26:07;;;;;;;;;;;-2.50;99.90;;;;;;5092491;28;19912;-71
2022/01/24 01:28:33;;;;;;;;;;;-2.50;99.90;;;;;;5092441;28;19908;-72
2022/01/24 01:31:04;;;;;;;;;;;-2.50;99.90;;;;;;5088535;28;20312;-72
2022/01/24 01:52:44;;;;;;;;;;;-2.60;99.90;;;;;;5092181;28;19962;-72
2022/01/24 01:55:26;;;;;;;;;;;-2.70;99.90;;;;;;5091766;28;19937;-72
2022/01/24 01:57:52;;;;;;;;;;;-2.70;99.90;;;;;;5072627;28;19932;-72
2022/01/24 02:00:18;;;;;;;;;;;-2.70;99.90;;;;;;5072648;28;20373;-70
2022/01/24 02:02:44;;;;;;;;;;;-2.70;99.90;;;;;;5076697;28;19908;-71
2022/01/24 02:05:09;;;;;;;;;;;-2.60;99.90;;;;;;5081898;28;19908;-72
2022/01/24 02:07:44;;;;;;;;;;;-2.60;99.90;;;;;;5072422;28;19908;-72
2022/01/24 02:10:09;;;;;;;;;;;-2.60;99.90;;;;;;5072286;28;20288;-72
2022/01/24 02:12:35;;;;;;;;;;;-2.70;99.90;;;;;;5072449;28;19909;-72
2022/01/24 02:15:01;;;;;;;;;;;-2.70;99.90;;;;;;5007627;28;1832990;-72
2022/01/24 02:17:42;;;;;;;;;;;-2.70;99.90;;;;;;5073139;28;19909;-72
2022/01/24 02:22:51;;;;;;;;;;;-2.90;99.90;;;;;;5073030;28;19913;-72
2022/01/24 02:25:28;;;;;;;;;;;-2.90;99.90;;;;;;5072802;28;19915;-72
2022/01/24 02:27:58;;;;;;;;;;;-3.00;99.90;;;;;;5086056;28;19934;-72
2022/01/24 02:30:52;;;;;;;;;;;-3.00;99.90;;;;;;5092516;28;19908;-72
2022/01/24 02:33:17;;;;;;;;;;;-2.90;99.90;;;;;;5077279;28;19970;-72
2022/01/24 02:35:43;;;;;;;;;;;-2.80;99.90;;;;;;5073115;28;19908;-72
2022/01/24 02:40:43;;;;;;;;;;;-2.80;99.90;;;;;;5072939;28;19913;-72
2022/01/24 02:48:30;;;;;;;;;;;-3.00;99.90;;;;;;5092385;28;19908;-72
2022/01/24 02:53:55;;;;;;;;;;;-3.10;99.90;;;;;;5049849;28;19913;-72
2022/01/24 02:56:20;;;;;;;;;;;-3.20;99.90;;;;;;5072440;28;19999;-72
2022/01/24 02:58:46;;;;;;;;;;;-3.10;99.90;;;;;;5072284;28;19912;-72
2022/01/24 03:01:11;;;;;;;;;;;-3.10;99.90;;;;;;5072998;28;19909;-72
2022/01/24 03:03:37;;;;;;;;;;;-3.10;99.90;;;;;;5082156;28;20092;-72
2022/01/24 03:06:03;;;;;;;;;;;-3.10;99.90;;;;;;5074957;28;20361;-72
2022/01/24 03:08:28;;;;;;;;;;;-3.10;99.90;;;;;;5072324;28;19908;-72
2022/01/24 03:10:54;;;;;;;;;;;-3.10;99.90;;;;;;5072069;28;19913;-72
2022/01/24 03:15:55;;;;;;;;;;;-2.80;99.90;;;;;;5072173;28;19913;-72
2022/01/24 03:18:21;;;;;;;;;;;-2.70;99.90;;;;;;5072153;28;19954;-72
2022/01/24 03:20:46;;;;;;;;;;;-2.80;99.90;;;;;;5071929;28;19983;-72
2022/01/24 03:23:12;;;;;;;;;;;-2.70;99.90;;;;;;5071428;28;19961;-72
2022/01/24 03:25:38;;;;;;;;;;;-2.90;99.90;;;;;;5071791;28;19954;-72
2022/01/24 03:28:04;;;;;;;;;;;-3.00;99.90;;;;;;5072075;28;20308;-72
2022/01/24 03:30:30;;;;;;;;;;;-3.00;99.90;;;;;;5071819;28;20286;-72
2022/01/24 03:32:56;;;;;;;;;;;-3.10;99.90;;;;;;5078680;28;19916;-72
2022/01/24 03:35:22;;;;;;;;;;;-3.10;99.90;;;;;;5081712;28;19916;-72
2022/01/24 03:37:47;;;;;;;;;;;-3.10;99.90;;;;;;5071563;28;20316;-72
2022/01/24 03:40:13;;;;;;;;;;;-3.00;99.90;;;;;;5071692;28;19947;-72
2022/01/24 03:42:38;;;;;;;;;;;-3.10;99.90;;;;;;5071710;28;19952;-72
2022/01/24 03:45:07;;;;;;;;;;;-3.10;99.90;;;;;;5071734;28;19909;-73
2022/01/24 03:47:55;;;;;;;;;;;-3.10;99.90;;;;;;5071695;28;20171;-73
2022/01/24 03:50:18;;;;;;;;;;;-3.20;99.90;;;;;;5071414;28;20435;-72
2022/01/24 03:52:44;;;;;;;;;;;-3.30;99.90;;;;;;5071535;28;19909;-72
2022/01/24 03:55:09;;;;;;;;;;;-3.30;99.90;;;;;;5071175;28;19920;-72
2022/01/24 03:57:35;;;;;;;;;;;-3.50;99.90;;;;;;5071458;28;19931;-72
2022/01/24 04:00:00;;;;;;;;;;;-3.40;99.90;;;;;;5071595;28;19931;-72
2022/01/24 04:02:27;;;;;;;;;;;-3.30;99.90;;;;;;5083270;28;19913;-72
2022/01/24 04:04:53;;;;;;;;;;;-3.40;99.90;;;;;;5073852;28;19908;-72
2022/01/24 04:07:18;;;;;;;;;;;-3.50;99.90;;;;;;5071203;28;19919;-73
2022/01/24 04:09:44;;;;;;;;;;;-3.60;99.90;;;;;;5071541;28;19916;-72
2022/01/24 04:12:10;;;;;;;;;;;-3.60;99.90;;;;;;5071217;28;20377;-72
2022/01/24 04:14:52;;;;;;;;;;;-3.80;99.90;;;;;;5076384;28;19916;-72
2022/01/24 04:21:17;;;;;;;;;;;-3.70;99.90;;;;;;5071462;28;20422;-72
2022/01/24 04:22:48;;;;;;;;;;;-3.70;99.90;;;;;;5084993;28;20440;-72
2022/01/24 04:25:16;;;;;;;;;;;-3.80;99.90;;;;;;5090363;28;20407;-72
2022/01/24 04:27:41;;;;;;;;;;;-3.70;99.90;;;;;;5090582;28;19909;-72
2022/01/24 04:30:07;;;;;;;;;;;-3.60;99.90;;;;;;5090512;28;19919;-72
2022/01/24 04:32:32;;;;;;;;;;;-3.50;99.90;;;;;;5081096;28;20379;-73
2022/01/24 04:34:58;;;;;;;;;;;-3.40;99.90;;;;;;5078494;28;19916;-73
2022/01/24 04:37:23;;;;;;;;;;;-3.50;99.90;;;;;;5071153;28;19909;-72
2022/01/24 04:39:49;;;;;;;;;;;-3.60;99.90;;;;;;5071134;28;20111;-72
2022/01/24 04:42:23;;;;;;;;;;;-3.60;99.90;;;;;;5071089;28;19915;-72
2022/01/24 04:45:20;;;;;;;;;;;-3.70;99.90;;;;;;5070639;28;19909;-72
2022/01/24 04:51:04;;;;;;;;;;;-3.80;99.90;;;;;;5052099;28;19908;-72
2022/01/24 04:55:58;;;;;;;;;;;-4.00;99.90;;;;;;5090306;28;19916;-73
2022/01/24 04:58:23;;;;;;;;;;;-4.00;99.90;;;;;;5090360;28;19915;-72
2022/01/24 05:00:49;;;;;;;;;;;-3.90;99.90;;;;;;5088873;28;20284;-72
2022/01/24 05:03:14;;;;;;;;;;;-3.80;99.90;;;;;;5073991;28;19908;-72
2022/01/24 05:05:40;;;;;;;;;;;-3.90;99.90;;;;;;5076301;28;19908;-73
2022/01/24 05:08:08;;;;;;;;;;;-3.80;99.90;;;;;;5072374;28;19912;-72
2022/01/24 05:10:42;;;;;;;;;;;-3.80;99.90;;;;;;5074547;28;20015;-72
2022/01/24 05:23:48;;;;;;;;;;;-3.90;99.90;;;;;;5093532;28;19912;-72
2022/01/24 05:26:15;;;;;;;;;;;-4.00;99.90;;;;;;5093459;28;19908;-72
2022/01/24 05:28:41;;;;;;;;;;;-4.10;99.90;;;;;;5093789;28;19908;-73
2022/01/24 05:31:06;;;;;;;;;;;-4.10;99.90;;;;;;5092567;28;19931;-72
2022/01/24 05:33:32;;;;;;;;;;;-4.20;99.90;;;;;;5087142;28;19908;-72
2022/01/24 05:35:58;;;;;;;;;;;-4.20;99.90;;;;;;5093442;28;19934;-72
2022/01/24 05:38:23;;;;;;;;;;;-4.20;99.90;;;;;;5093477;28;19954;-72
2022/01/24 05:40:49;;;;;;;;;;;-4.00;99.90;;;;;;5093368;28;20326;-73
2022/01/24 05:43:15;;;;;;;;;;;-3.90;99.90;;;;;;5092986;28;19974;-72
2022/01/24 05:45:41;;;;;;;;;;;-3.90;99.90;;;;;;5093385;28;19908;-72
2022/01/24 05:48:07;;;;;;;;;;;-4.00;99.90;;;;;;5093513;28;20486;-73
2022/01/24 05:50:32;;;;;;;;;;;-4.00;99.90;;;;;;5093392;28;19908;-72
2022/01/24 05:52:58;;;;;;;;;;;-4.00;99.90;;;;;;5092924;28;20345;-72
2022/01/24 05:55:23;;;;;;;;;;;-4.00;99.90;;;;;;5083475;28;19912;-72
2022/01/24 05:57:52;;;;;;;;;;;-4.00;99.90;;;;;;5073613;28;20221;-73
2022/01/24 06:00:18;;;;;;;;;;;-4.00;99.90;;;;;;5072454;28;20413;-72
2022/01/24 06:02:43;;;;;;;;;;;-4.00;99.90;;;;;;5083782;28;19935;-72
2022/01/24 06:05:09;;;;;;;;;;;-4.10;99.90;;;;;;5080732;28;19916;-72
2022/01/24 06:07:34;;;;;;;;;;;-4.20;99.90;;;;;;5073556;28;19951;-73
2022/01/24 06:10:00;;;;;;;;;;;-4.30;99.90;;;;;;5073364;28;19971;-73
2022/01/24 06:12:26;;;;;;;;;;;-4.40;99.90;;;;;;5073655;28;19913;-73
2022/01/24 06:14:51;;;;;;;;;;;-4.40;99.90;;;;;;5071515;28;19920;-73
2022/01/24 06:17:17;;;;;;;;;;;-4.50;99.90;;;;;;5072202;28;20340;-73
2022/01/24 06:19:43;;;;;;;;;;;-4.50;99.90;;;;;;5071941;28;19931;-72
2022/01/24 06:22:08;;;;;;;;;;;-4.40;99.90;;;;;;5073339;28;19916;-72
2022/01/24 06:24:34;;;;;;;;;;;-4.30;99.90;;;;;;5071351;28;20011;-72
2022/01/24 06:26:59;;;;;;;;;;;-4.20;99.90;;;;;;5073323;28;19961;-73
2022/01/24 06:29:25;;;;;;;;;;;-4.10;99.90;;;;;;5073073;28;20349;-72
2022/01/24 06:31:50;;;;;;;;;;;-4.20;99.90;;;;;;5087088;28;19909;-73
2022/01/24 06:34:16;;;;;;;;;;;-4.30;99.90;;;;;;5078785;28;19916;-73
2022/01/24 06:36:42;;;;;;;;;;;-4.10;99.90;;;;;;5074186;28;19908;-72
2022/01/24 06:39:10;;;;;;;;;;;-4.00;99.90;;;;;;5085662;28;19915;-74
2022/01/24 06:41:36;;;;;;;;;;;-4.00;99.90;;;;;;5093247;28;19908;-71
2022/01/24 06:44:02;;;;;;;;;;;-4.00;99.90;;;;;;5087172;28;19948;-72
2022/01/24 06:46:28;;;;;;;;;;;-4.10;99.90;;;;;;5073540;28;19915;-71
2022/01/24 06:48:54;;;;;;;;;;;-4.00;99.90;;;;;;5072412;28;19962;-72
2022/01/24 06:51:20;;;;;;;;;;;-4.00;99.90;;;;;;5078136;28;19908;-71
2022/01/24 06:53:47;;;;;;;;;;;-4.00;99.90;;;;;;5074203;28;19916;-71
2022/01/24 06:56:13;;;;;;;;;;;-3.80;99.90;;;;;;5073372;28;19908;-71
2022/01/24 06:58:38;;;;;;;;;;;-3.50;99.90;;;;;;5073590;28;20274;-72
2022/01/24 07:01:04;;;;;;;;;;;-3.50;99.90;;;;;;5075901;28;19909;-72
2022/01/24 07:03:29;;;;;;;;;;;-3.40;99.90;;;;;;5082704;28;19913;-72
2022/01/24 07:05:55;;;;;;;;;;;-3.30;99.90;;;;;;5072747;28;20281;-72
2022/01/24 07:08:20;;;;;;;;;;;-3.50;99.90;;;;;;5072662;28;19908;-72
2022/01/24 07:10:46;;;;;;;;;;;-3.60;99.90;;;;;;5071652;28;19908;-72
2022/01/24 07:13:12;;;;;;;;;;;-3.70;99.90;;;;;;5072789;28;19997;-72
2022/01/24 07:16:01;;;;;;;;;;;-3.80;99.90;;;;;;5072999;28;20019;-73
2022/01/24 07:20:57;;;;;;;;;;;-3.50;99.90;;;;;;5083015;28;19908;-71
2022/01/24 07:23:23;;;;;;;;;;;-3.50;99.90;;;;;;5072626;28;19912;-72
2022/01/24 07:25:48;;;;;;;;;;;-3.60;99.90;;;;;;5073295;28;20258;-73
2022/01/24 07:28:14;;;;;;;;;;;-3.50;99.90;;;;;;5071526;28;19944;-72
2022/01/24 07:30:40;;;;;;;;;;;-3.60;99.90;;;;;;5073158;28;20313;-73
2022/01/24 07:33:06;;;;;;;;;;;-3.60;99.90;;;;;;5077057;28;20404;-71
2022/01/24 07:35:32;;;;;;;;;;;-3.70;99.90;;;;;;5081064;28;19913;-73
2022/01/24 07:37:58;;;;;;;;;;;-3.70;99.90;;;;;;5075113;28;20592;-73
2022/01/24 07:40:23;;;;;;;;;;;-3.70;99.90;;;;;;5073080;28;19954;-72
2022/01/24 07:45:19;;;;;;;;;;;-3.50;99.90;;;;;;5077067;28;19908;-72
2022/01/24 07:47:47;;;;;;;;;;;-3.40;99.90;;;;;;5080230;28;19908;-73
2022/01/24 07:50:13;;;;;;;;;;;-3.40;99.90;;;;;;5078059;28;20046;-73
2022/01/24 07:52:39;;;;;;;;;;;-3.40;99.90;;;;;;5081913;28;19948;-73
2022/01/24 07:55:05;;;;;;;;;;;-3.50;99.90;;;;;;5073868;28;20009;-70
2022/01/24 07:57:30;;;;;;;;;;;-3.40;99.90;;;;;;5082277;28;19983;-71
2022/01/24 07:59:56;;;;;;;;;;;-3.10;99.90;;;;;;5091953;28;19912;-71
2022/01/24 08:02:21;;;;;;;;;;;-3.00;99.90;;;;;;5086208;28;19916;-74
2022/01/24 08:04:47;;;;;;;;;;;-2.90;99.90;;;;;;5085524;28;19962;-71
2022/01/24 08:07:12;;;;;;;;;;;-2.80;99.90;;;;;;5080613;28;19908;-72
2022/01/24 08:09:38;;;;;;;;;;;-2.70;99.90;;;;;;5089562;28;19912;-72
2022/01/24 08:12:04;;;;;;;;;;;-2.50;99.90;;;;;;5093659;28;19946;-71
2022/01/24 08:14:30;;;;;;;;;;;-2.40;99.90;;;;;;5088396;28;19919;-70
2022/01/24 08:16:55;;;;;;;;;;;-2.40;99.90;;;;;;5087868;28;19923;-71
2022/01/24 08:19:21;;;;;;;;;;;-2.30;99.90;;;;;;5080433;28;20005;-72
2022/01/24 08:21:47;;;;;;;;;;;-2.10;99.90;;;;;;5075058;28;19913;-72
2022/01/24 08:24:12;;;;;;;;;;;-2.10;99.90;;;;;;5074217;28;20303;-71
2022/01/24 08:26:38;;;;;;;;;;;-2.00;99.90;;;;;;5074592;28;20325;-72
2022/01/24 08:29:04;;;;;;;;;;;-1.80;99.90;;;;;;5074672;28;19909;-71
2022/01/24 08:31:30;;;;;;;;;;;-1.70;99.90;;;;;;5081240;28;19916;-72
2022/01/24 08:33:55;;;;;;;;;;;-1.50;99.90;;;;;;5082537;28;20411;-71
2022/01/24 08:36:21;;;;;;;;;;;-1.40;99.90;;;;;;5074740;28;19908;-71
2022/01/24 08:38:50;;;;;;;;;;;-1.30;99.90;;;;;;5075612;28;19909;-72
2022/01/24 08:41:24;;;;;;;;;;;-1.20;99.90;;;;;;5074387;28;19916;-72
2022/01/24 08:46:15;;;;;;;;;;;-0.50;99.90;;;;;;5078211;28;19909;-72
2022/01/24 08:48:42;;;;;;;;;;;1.00;99.90;;;;;;5078547;28;19948;-72
2022/01/24 08:51:08;;;;;;;;;;;2.40;99.90;;;;;;5098961;28;19911;-72
2022/01/24 08:53:34;;;;;;;;;;;2.40;99.90;;;;;;5077961;28;19920;-72
2022/01/24 08:56:01;;;;;;;;;;;2.70;99.90;;;;;;5097867;28;19915;-72
2022/01/24 08:58:27;;;;;;;;;;;2.90;99.90;;;;;;5097659;28;19916;-72
2022/01/24 09:00:52;;;;;;;;;;;4.10;99.90;;;;;;5096343;28;20405;-72
2022/01/24 09:03:18;;;;;;;;;;;4.90;99.90;;;;;;5086608;28;20305;-72
2022/01/24 09:05:44;;;;;;;;;;;5.20;99.90;;;;;;5080839;28;19912;-73
2022/01/24 09:08:10;;;;;;;;;;;5.90;99.90;;;;;;5078931;28;19909;-73
2022/01/24 09:10:37;;;;;;;;;;;6.90;98.50;;;;;;5078722;28;19930;-73
2022/01/24 09:13:03;;;;;;;;;;;7.60;97.60;;;;;;5078261;28;19944;-72
2022/01/24 09:15:28;;;;;;;;;;;7.50;96.90;;;;;;5082530;28;20391;-72
2022/01/24 09:17:54;;;;;;;;;;;7.50;96.40;;;;;;5087570;28;19913;-73
2022/01/24 09:20:20;;;;;;;;;;;7.70;96.60;;;;;;5087209;28;19949;-73
2022/01/24 09:22:46;;;;;;;;;;;7.80;95.40;;;;;;5093609;28;20349;-72
2022/01/24 09:25:13;;;;;;;;;;;8.00;95.60;;;;;;5082761;28;19908;-73
2022/01/24 09:27:38;;;;;;;;;;;9.10;93.50;;;;;;5075058;28;19915;-73
2022/01/24 09:30:05;;;;;;;;;;;9.20;93.00;;;;;;5075120;28;19909;-73
2022/01/24 09:32:31;;;;;;;;;;;9.70;92.20;;;;;;5082399;28;19954;-71
2022/01/24 09:34:56;;;;;;;;;;;9.90;92.00;;;;;;5075933;28;19913;-73
2022/01/24 09:37:22;;;;;;;;;;;10.30;90.60;;;;;;5074664;28;19916;-73
2022/01/24 09:39:48;;;;;;;;;;;10.30;90.00;;;;;;5075044;28;19915;-73
2022/01/24 09:42:13;;;;;;;;;;;10.70;88.60;;;;;;5075075;28;20293;-73
2022/01/24 09:44:39;;;;;;;;;;;10.90;88.10;;;;;;5074293;28;20292;-73
2022/01/24 09:47:04;;;;;;;;;;;11.90;86.40;;;;;;5074692;28;19908;-73
2022/01/24 09:49:30;;;;;;;;;;;11.80;84.10;;;;;;5082777;28;19955;-73
2022/01/24 09:51:55;;;;;;;;;;;12.00;84.30;;;;;;5078892;28;20417;-73
2022/01/24 09:54:21;;;;;;;;;;;12.50;83.40;;;;;;5073059;28;19927;-73
2022/01/24 09:56:46;;;;;;;;;;;13.00;80.80;;;;;;5073801;28;20006;-73
2022/01/24 09:59:12;;;;;;;;;;;12.80;81.80;;;;;;5073448;28;20026;-73
2022/01/24 10:01:38;;;;;;;;;;;12.50;80.80;;;;;;5073844;28;20273;-73
2022/01/24 10:04:08;;;;;;;;;;;12.90;80.90;;;;;;5084647;28;19954;-73
2022/01/24 10:06:51;;;;;;;;;;;13.40;79.60;;;;;;5073564;28;19965;-73
2022/01/24 10:09:17;;;;;;;;;;;12.70;77.90;;;;;;5073733;28;19914;-73
2022/01/24 10:12:00;;;;;;;;;;;13.50;78.40;;;;;;5073663;28;19913;-72
2022/01/24 10:17:23;;;;;;;;;;;13.70;77.30;;;;;;5089751;28;19915;-73
2022/01/24 10:19:49;;;;;;;;;;;14.00;74.20;;;;;;5089185;28;19908;-73
2022/01/24 10:22:14;;;;;;;;;;;13.80;73.80;;;;;;5092914;28;20459;-73
2022/01/24 10:24:44;;;;;;;;;;;14.60;74.90;;;;;;5092583;28;19908;-73
2022/01/24 10:27:15;;;;;;;;;;;13.90;71.00;;;;;;5093727;28;19942;-73
2022/01/24 10:29:45;;;;;;;;;;;13.40;73.70;;;;;;5093557;28;19966;-73
2022/01/24 10:32:29;;;;;;;;;;;14.50;72.50;;;;;;5083553;28;19913;-73
2022/01/24 10:34:55;;;;;;;;;;;14.40;70.90;;;;;;5085752;28;19912;-73
2022/01/24 10:37:21;;;;;;;;;;;13.10;73.70;;;;;;5074962;28;19954;-73
2022/01/24 10:39:54;;;;;;;;;;;12.60;75.70;;;;;;5076325;28;19944;-73
2022/01/24 10:42:35;;;;;;;;;;;13.10;74.50;;;;;;5093192;28;19908;-73
2022/01/24 10:45:22;;;;;;;;;;;13.00;73.80;;;;;;5093396;28;19908;-73
2022/01/24 10:47:50;;;;;;;;;;;12.50;76.50;;;;;;5090333;28;19908;-73
2022/01/24 10:50:21;;;;;;;;;;;11.10;78.80;;;;;;5076429;28;19909;-72
2022/01/24 10:52:47;;;;;;;;;;;10.10;80.10;;;;;;5078905;28;20404;-73
2022/01/24 10:55:12;;;;;;;;;;;11.00;80.60;;;;;;5072295;28;19913;-73
2022/01/24 10:57:40;;;;;;;;;;;11.60;79.60;;;;;;5072486;28;20047;-73
2022/01/24 11:00:15;;;;;;;;;;;9.40;84.20;;;;;;5089475;28;19908;-72
2022/01/24 11:02:42;;;;;;;;;;;8.50;87.20;;;;;;5081548;28;19908;-72
2022/01/24 11:05:10;;;;;;;;;;;7.60;90.40;;;;;;5081799;28;20367;-72
2022/01/24 11:07:48;;;;;;;;;;;6.60;91.60;;;;;;5086214;28;20456;-72
2022/01/24 11:10:14;;;;;;;;;;;6.50;92.40;;;;;;5085665;28;20333;-72
2022/01/24 11:12:40;;;;;;;;;;;6.60;92.80;;;;;;5091844;28;19948;-72
2022/01/24 11:15:05;;;;;;;;;;;6.40;93.00;;;;;;5075544;28;19916;-71
2022/01/24 11:17:31;;;;;;;;;;;7.00;92.00;;;;;;5077385;28;20457;-72
2022/01/24 11:20:01;;;;;;;;;;;7.60;91.60;;;;;;5078754;28;20385;-72
2022/01/24 11:22:29;;;;;;;;;;;7.50;90.70;;;;;;5091866;28;19919;-72
2022/01/24 11:25:00;;;;;;;;;;;6.80;92.00;;;;;;5091935;28;19908;-72
2022/01/24 11:27:26;;;;;;;;;;;6.60;92.50;;;;;;5091932;28;19912;-72
2022/01/24 11:30:03;;;;;;;;;;;6.70;91.80;;;;;;5091815;28;19953;-72
2022/01/24 11:32:47;;;;;;;;;;;6.10;93.40;;;;;;5088417;28;19933;-72
2022/01/24 11:35:27;;;;;;;;;;;5.30;94.90;;;;;;5075997;28;20263;-72
2022/01/24 11:37:52;;;;;;;;;;;5.00;95.80;;;;;;5072234;28;19909;-72
2022/01/24 11:40:19;;;;;;;;;;;4.70;96.10;;;;;;5074817;28;20304;-73
2022/01/24 11:42:47;;;;;;;;;;;4.70;96.90;;;;;;5071562;28;19954;-72
2022/01/24 11:45:15;;;;;;;;;;;4.70;96.60;;;;;;5071647;28;20400;-72
2022/01/24 11:47:41;;;;;;;;;;;4.60;97.10;;;;;;5071394;28;19913;-72
2022/01/24 11:50:25;;;;;;;;;;;4.50;96.70;;;;;;5077378;28;19919;-72
2022/01/24 11:52:54;;;;;;;;;;;4.60;96.90;;;;;;5081973;28;20262;-72
2022/01/24 11:55:31;;;;;;;;;;;4.70;97.80;;;;;;5079665;28;19920;-72
2022/01/24 11:57:58;;;;;;;;;;;4.60;97.50;;;;;;5071118;28;19912;-72
2022/01/24 12:00:26;;;;;;;;;;;4.50;98.30;;;;;;5072151;28;19909;-72
2022/01/24 12:02:59;;;;;;;;;;;4.50;98.00;;;;;;5075950;28;19914;-72
2022/01/24 12:05:29;;;;;;;;;;;4.30;99.20;;;;;;5077345;28;19952;-73
2022/01/24 12:07:56;;;;;;;;;;;4.40;98.90;;;;;;5071729;28;20007;-72
2022/01/24 12:10:22;;;;;;;;;;;4.40;98.40;;;;;;5071448;28;19916;-72
2022/01/24 12:12:50;;;;;;;;;;;4.30;97.70;;;;;;5071697;28;19909;-72
2022/01/24 12:15:34;;;;;;;;;;;4.30;98.30;;;;;;5073340;28;19924;-72
2022/01/24 12:18:01;;;;;;;;;;;4.30;99.20;;;;;;5081845;28;19909;-72
2022/01/24 12:20:30;;;;;;;;;;;4.40;98.80;;;;;;5075908;28;19935;-73
2022/01/24 12:22:56;;;;;;;;;;;4.40;99.00;;;;;;5075947;28;19916;-73
2022/01/24 12:25:40;;;;;;;;;;;4.30;98.90;;;;;;5075391;28;19909;-73
2022/01/24 12:28:24;;;;;;;;;;;4.30;98.40;;;;;;5090181;28;19912;-73
2022/01/24 12:31:13;;;;;;;;;;;4.30;99.40;;;;;;5094228;28;19909;-73
2022/01/24 12:33:43;;;;;;;;;;;4.20;99.90;;;;;;5074514;28;19935;-73
2022/01/24 12:36:09;;;;;;;;;;;4.30;99.90;;;;;;5095339;28;19913;-74
2022/01/24 12:38:48;;;;;;;;;;;4.40;99.90;;;;;;5095057;28;20307;-73
2022/01/24 12:41:16;;;;;;;;;;;4.60;99.20;;;;;;5095841;28;19908;-72
2022/01/24 12:46:27;;;;;;;;;;;4.40;99.40;;;;;;5094867;28;19962;-72
2022/01/24 12:48:53;;;;;;;;;;;4.30;99.70;;;;;;5091967;28;19909;-72
2022/01/24 12:51:21;;;;;;;;;;;4.50;99.80;;;;;;5088681;28;19908;-72
2022/01/24 12:53:48;;;;;;;;;;;4.50;99.90;;;;;;5090842;28;19912;-72
2022/01/24 12:56:14;;;;;;;;;;;4.40;99.90;;;;;;5094055;28;19908;-72
2022/01/24 12:58:44;;;;;;;;;;;4.30;99.90;;;;;;5094153;28;19908;-73
2022/01/24 13:01:16;;;;;;;;;;;4.30;99.90;;;;;;5088484;28;19955;-72
2022/01/24 13:03:56;;;;;;;;;;;4.40;99.90;;;;;;5086417;28;19959;-73
2022/01/24 13:06:22;;;;;;;;;;;4.30;99.80;;;;;;5075285;28;20361;-72
2022/01/24 13:09:10;;;;;;;;;;;4.60;99.70;;;;;;5074312;28;19912;-72
2022/01/24 13:11:48;;;;;;;;;;;4.60;99.90;;;;;;5081213;28;19908;-72
2022/01/24 13:14:31;;;;;;;;;;;4.30;99.80;;;;;;5092167;28;19920;-72
2022/01/24 13:22:42;;;;;;;;;;;4.20;99.90;;;;;;5074857;28;19938;-73
2022/01/24 13:25:10;;;;;;;;;;;4.20;99.90;;;;;;5073958;28;19908;-72
2022/01/24 13:27:37;;;;;;;;;;;4.20;99.90;;;;;;5074564;28;19916;-72
2022/01/24 13:30:04;;;;;;;;;;;4.10;99.90;;;;;;5092368;28;19916;-72
2022/01/24 13:32:42;;;;;;;;;;;4.20;99.90;;;;;;5082693;28;20381;-72
2022/01/24 13:35:11;;;;;;;;;;;4.30;99.90;;;;;;5080419;28;19913;-72
2022/01/24 13:37:39;;;;;;;;;;;4.30;99.90;;;;;;5074421;28;19958;-72
2022/01/24 13:40:04;;;;;;;;;;;4.40;99.90;;;;;;5074567;28;19965;-72
2022/01/24 13:42:33;;;;;;;;;;;4.60;99.90;;;;;;5074820;28;19916;-72
2022/01/24 13:44:59;;;;;;;;;;;4.80;99.80;;;;;;5074390;28;19981;-72
2022/01/24 13:47:25;;;;;;;;;;;4.60;99.80;;;;;;5074319;28;20015;-72
2022/01/24 13:49:50;;;;;;;;;;;4.40;99.90;;;;;;5086572;28;19962;-72
2022/01/24 13:52:18;;;;;;;;;;;4.40;99.90;;;;;;5075295;28;20373;-72
2022/01/24 13:54:44;;;;;;;;;;;4.30;99.90;;;;;;5093083;28;20016;-72
2022/01/24 13:57:15;;;;;;;;;;;4.30;99.90;;;;;;5093373;28;19909;-72
2022/01/24 13:59:42;;;;;;;;;;;4.40;99.90;;;;;;5093595;28;19908;-72
2022/01/24 14:02:14;;;;;;;;;;;4.30;99.90;;;;;;5095025;28;19908;-72
2022/01/24 14:04:48;;;;;;;;;;;4.50;99.90;;;;;;5083771;28;20007;-72
2022/01/24 14:07:20;;;;;;;;;;;4.40;99.90;;;;;;5093366;28;19935;-72
2022/01/24 14:09:50;;;;;;;;;;;4.50;99.90;;;;;;5093215;28;19912;-72
2022/01/24 14:12:17;;;;;;;;;;;4.60;99.90;;;;;;5092809;28;20326;-72
2022/01/24 14:14:48;;;;;;;;;;;4.60;99.90;;;;;;5089537;28;19922;-72
2022/01/24 14:19:40;;;;;;;;;;;4.60;99.90;;;;;;5073797;28;19912;-72
2022/01/24 14:22:07;;;;;;;;;;;4.50;99.90;;;;;;5073471;28;19995;-72
2022/01/24 14:24:52;;;;;;;;;;;4.30;99.90;;;;;;5073029;28;20443;-72
2022/01/24 14:27:36;;;;;;;;;;;4.20;99.90;;;;;;5074097;28;19912;-72
2022/01/24 14:30:07;;;;;;;;;;;4.30;99.90;;;;;;5080162;28;19919;-72
2022/01/24 14:32:35;;;;;;;;;;;4.30;99.90;;;;;;5076742;28;19916;-72
2022/01/24 14:35:07;;;;;;;;;;;4.40;99.90;;;;;;5079082;28;20380;-74
2022/01/24 14:37:43;;;;;;;;;;;4.40;99.90;;;;;;5073217;28;19908;-73
2022/01/24 14:40:13;;;;;;;;;;;4.40;99.90;;;;;;5081791;28;19913;-72
2022/01/24 14:42:46;;;;;;;;;;;4.40;99.90;;;;;;5091681;28;19965;-73
2022/01/24 14:45:11;;;;;;;;;;;4.30;99.90;;;;;;5092469;28;19915;-72
2022/01/24 14:47:37;;;;;;;;;;;4.30;99.90;;;;;;5083971;28;19908;-72
2022/01/24 14:50:02;;;;;;;;;;;4.40;99.90;;;;;;5076847;28;19916;-72
2022/01/24 14:52:33;;;;;;;;;;;4.30;99.90;;;;;;5078703;28;20148;-72
2022/01/24 14:54:59;;;;;;;;;;;4.30;99.90;;;;;;5072618;28;20399;-72
2022/01/24 14:57:24;;;;;;;;;;;4.20;99.90;;;;;;5073411;28;19952;-72
2022/01/24 14:59:50;;;;;;;;;;;4.00;99.90;;;;;;5073277;28;19909;-73
2022/01/24 15:02:15;;;;;;;;;;;4.10;99.90;;;;;;5079099;28;19948;-73
2022/01/24 15:04:41;;;;;;;;;;;4.00;99.90;;;;;;5080028;28;19912;-72
2022/01/24 15:07:06;;;;;;;;;;;4.00;99.90;;;;;;5072710;28;20003;-72
2022/01/24 15:09:32;;;;;;;;;;;4.00;99.90;;;;;;5072405;28;20313;-72
2022/01/24 15:12:00;;;;;;;;;;;4.10;99.90;;;;;;5072714;28;20427;-72
2022/01/24 15:14:34;;;;;;;;;;;4.10;99.90;;;;;;5070823;28;19986;-72
2022/01/24 15:17:25;;;;;;;;;;;3.90;99.90;;;;;;5077741;28;20014;-72
2022/01/24 15:25:20;;;;;;;;;;;3.60;99.90;;;;;;5091055;28;19980;-72
2022/01/24 15:27:47;;;;;;;;;;;3.30;99.90;;;;;;5091292;28;19908;-72
2022/01/24 15:30:13;;;;;;;;;;;3.20;99.90;;;;;;5091086;28;19908;-72
2022/01/24 15:32:39;;;;;;;;;;;3.20;99.90;;;;;;5085974;28;19951;-73
2022/01/24 15:35:05;;;;;;;;;;;3.20;99.90;;;;;;5077037;28;19944;-72
2022/01/24 15:37:31;;;;;;;;;;;3.00;99.90;;;;;;5071715;28;20007;-72
2022/01/24 15:39:56;;;;;;;;;;;3.10;99.90;;;;;;5074669;28;19916;-72
2022/01/24 15:42:43;;;;;;;;;;;2.90;99.90;;;;;;5090957;28;20377;-71
2022/01/24 15:50:03;;;;;;;;;;;2.90;99.90;;;;;;5080405;28;19907;-72
2022/01/24 15:52:29;;;;;;;;;;;3.00;99.90;;;;;;5078894;28;19942;-72
2022/01/24 15:54:55;;;;;;;;;;;3.10;99.90;;;;;;5071186;28;20003;-73
2022/01/24 15:57:40;;;;;;;;;;;3.10;99.90;;;;;;5071449;28;19915;-72
2022/01/24 16:00:07;;;;;;;;;;;3.10;99.90;;;;;;5078129;28;19962;-72
2022/01/24 16:02:32;;;;;;;;;;;2.90;99.90;;;;;;5074523;28;20378;-72
2022/01/24 16:04:58;;;;;;;;;;;3.00;99.90;;;;;;5085983;28;20007;-72
2022/01/24 16:07:24;;;;;;;;;;;2.80;99.90;;;;;;5072800;28;19908;-72
2022/01/24 16:09:50;;;;;;;;;;;2.50;99.90;;;;;;5072762;28;19998;-72
2022/01/24 16:12:15;;;;;;;;;;;2.40;99.90;;;;;;5074653;28;20324;-73
2022/01/24 16:14:41;;;;;;;;;;;2.30;99.90;;;;;;5077474;28;19947;-72
2022/01/24 16:17:06;;;;;;;;;;;2.00;99.90;;;;;;5074443;28;19966;-71
2022/01/24 16:19:38;;;;;;;;;;;1.60;99.90;;;;;;5077408;28;19909;-74